sensor_id;sensor_type;location;lat;lon;timestamp;pressure;altitude;pressure_sealevel;temperature;humidity
10310;BME280;5200;43.236;27.986;2022-07-12T00:00:05;100122.47;;;17.83;51.71
10310;BME280;5200;43.236;27.986;2022-07-12T00:02:32;100143.03;;;17.89;51.84
10310;BME280;5200;43.236;27.986;2022-07-12T00:05:00;100147.44;;;17.82;52.47
10310;BME280;5200;43.236;27.986;2022-07-12T00:07:27;100120.88;;;17.59;52.78
10310;BME280;5200;43.236;27.986;2022-07-12T00:09:53;100151.06;;;17.66;52.94
10310;BME280;5200;43.236;27.986;2022-07-12T00:12:20;100125.31;;;17.44;52.99
10310;BME280;5200;43.236;27.986;2022-07-12T00:14:47;100151.53;;;17.47;53.79
10310;BME280;5200;43.236;27.986;2022-07-12T00:17:16;100146.31;;;17.39;53.88
10310;BME280;5200;43.236;27.986;2022-07-12T00:19:43;100140.38;;;17.28;54.23
10310;BME280;5200;43.236;27.986;2022-07-12T00:22:10;100145.41;;;17.23;54.51
10310;BME280;5200;43.236;27.986;2022-07-12T00:24:37;100144.75;;;17.21;55.03
10310;BME280;5200;43.236;27.986;2022-07-12T00:27:04;100143.13;;;17.20;54.88
10310;BME280;5200;43.236;27.986;2022-07-12T00:29:31;100143.47;;;17.17;54.93
10310;BME280;5200;43.236;27.986;2022-07-12T00:31:58;100130.22;;;17.09;54.83
10310;BME280;5200;43.236;27.986;2022-07-12T00:34:26;100136.16;;;17.19;54.82
10310;BME280;5200;43.236;27.986;2022-07-12T00:36:53;100132.47;;;17.20;54.89
10310;BME280;5200;43.236;27.986;2022-07-12T00:39:20;100133.13;;;17.22;54.89
10310;BME280;5200;43.236;27.986;2022-07-12T00:41:48;100130.63;;;17.21;54.72
10310;BME280;5200;43.236;27.986;2022-07-12T00:44:15;100129.97;;;17.19;54.88
10310;BME280;5200;43.236;27.986;2022-07-12T00:46:43;100134.78;;;17.23;54.90
10310;BME280;5200;43.236;27.986;2022-07-12T00:49:10;100138.97;;;17.18;54.88
10310;BME280;5200;43.236;27.986;2022-07-12T00:51:42;100126.88;;;17.15;55.27
10310;BME280;5200;43.236;27.986;2022-07-12T00:54:10;100110.88;;;17.00;55.32
10310;BME280;5200;43.236;27.986;2022-07-12T00:56:37;100135.22;;;17.12;55.37
10310;BME280;5200;43.236;27.986;2022-07-12T00:59:04;100138.03;;;17.10;55.55
10310;BME280;5200;43.236;27.986;2022-07-12T01:01:31;100122.31;;;17.01;55.60
10310;BME280;5200;43.236;27.986;2022-07-12T01:03:58;100137.53;;;17.07;55.66
10310;BME280;5200;43.236;27.986;2022-07-12T01:06:25;100118.53;;;16.95;55.54
10310;BME280;5200;43.236;27.986;2022-07-12T01:08:54;100138.94;;;17.03;56.01
10310;BME280;5200;43.236;27.986;2022-07-12T01:11:24;100109.97;;;16.85;56.07
10310;BME280;5200;43.236;27.986;2022-07-12T01:13:51;100132.34;;;16.90;56.50
10310;BME280;5200;43.236;27.986;2022-07-12T01:16:20;100140.13;;;16.92;56.50
10310;BME280;5200;43.236;27.986;2022-07-12T01:18:47;100130.84;;;16.88;56.52
10310;BME280;5200;43.236;27.986;2022-07-12T01:21:18;100131.38;;;16.83;57.09
10310;BME280;5200;43.236;27.986;2022-07-12T01:23:47;100135.06;;;16.82;57.03
10310;BME280;5200;43.236;27.986;2022-07-12T01:26:15;100102.75;;;16.62;56.76
10310;BME280;5200;43.236;27.986;2022-07-12T01:28:42;100120.13;;;16.73;57.06
10310;BME280;5200;43.236;27.986;2022-07-12T01:31:09;100132.75;;;16.79;56.79
10310;BME280;5200;43.236;27.986;2022-07-12T01:33:36;100132.41;;;16.74;57.01
10310;BME280;5200;43.236;27.986;2022-07-12T01:36:05;100129.56;;;16.76;56.85
10310;BME280;5200;43.236;27.986;2022-07-12T01:38:32;100135.91;;;16.75;57.01
10310;BME280;5200;43.236;27.986;2022-07-12T01:41:00;100136.88;;;16.74;57.02
10310;BME280;5200;43.236;27.986;2022-07-12T01:43:28;100125.81;;;16.70;57.00
10310;BME280;5200;43.236;27.986;2022-07-12T01:45:55;100130.41;;;16.76;57.02
10310;BME280;5200;43.236;27.986;2022-07-12T01:48:22;100115.19;;;16.62;57.06
10310;BME280;5200;43.236;27.986;2022-07-12T01:50:49;100100.59;;;16.58;56.96
10310;BME280;5200;43.236;27.986;2022-07-12T01:53:16;100127.81;;;16.68;57.17
10310;BME280;5200;43.236;27.986;2022-07-12T01:55:43;100129.75;;;16.74;57.32
10310;BME280;5200;43.236;27.986;2022-07-12T01:58:14;100137.72;;;16.74;57.32
10310;BME280;5200;43.236;27.986;2022-07-12T02:00:41;100126.78;;;16.69;57.18
10310;BME280;5200;43.236;27.986;2022-07-12T02:03:16;100123.00;;;16.63;57.11
10310;BME280;5200;43.236;27.986;2022-07-12T02:05:43;100144.19;;;16.72;57.40
10310;BME280;5200;43.236;27.986;2022-07-12T02:08:11;100119.84;;;16.60;57.17
10310;BME280;5200;43.236;27.986;2022-07-12T02:10:38;100126.13;;;16.67;56.99
10310;BME280;5200;43.236;27.986;2022-07-12T02:13:06;100138.22;;;16.69;57.21
10310;BME280;5200;43.236;27.986;2022-07-12T02:15:34;100134.06;;;16.75;57.09
10310;BME280;5200;43.236;27.986;2022-07-12T02:18:01;100117.69;;;16.63;57.14
10310;BME280;5200;43.236;27.986;2022-07-12T02:20:28;100132.41;;;16.74;57.02
10310;BME280;5200;43.236;27.986;2022-07-12T02:22:55;100139.38;;;16.75;57.20
10310;BME280;5200;43.236;27.986;2022-07-12T02:25:22;100139.19;;;16.77;57.17
10310;BME280;5200;43.236;27.986;2022-07-12T02:27:49;100109.94;;;16.54;57.31
10310;BME280;5200;43.236;27.986;2022-07-12T02:30:16;100146.69;;;16.73;57.20
10310;BME280;5200;43.236;27.986;2022-07-12T02:32:44;100122.72;;;16.58;57.45
10310;BME280;5200;43.236;27.986;2022-07-12T02:35:11;100112.91;;;16.59;57.43
10310;BME280;5200;43.236;27.986;2022-07-12T02:37:38;100147.69;;;16.80;56.94
10310;BME280;5200;43.236;27.986;2022-07-12T02:40:06;100141.34;;;16.81;57.12
10310;BME280;5200;43.236;27.986;2022-07-12T02:43:02;100148.34;;;16.82;57.02
10310;BME280;5200;43.236;27.986;2022-07-12T02:45:29;100134.03;;;16.83;56.67
10310;BME280;5200;43.236;27.986;2022-07-12T02:47:57;100132.31;;;16.99;56.43
10310;BME280;5200;43.236;27.986;2022-07-12T02:50:24;100116.06;;;16.94;55.99
10310;BME280;5200;43.236;27.986;2022-07-12T02:52:51;100143.94;;;17.21;55.71
10310;BME280;5200;43.236;27.986;2022-07-12T02:55:18;100153.13;;;17.33;54.95
10310;BME280;5200;43.236;27.986;2022-07-12T02:57:45;100150.84;;;17.68;54.43
10310;BME280;5200;43.236;27.986;2022-07-12T03:00:13;100146.81;;;17.95;53.43
10310;BME280;5200;43.236;27.986;2022-07-12T03:02:40;100159.50;;;18.23;52.72
10310;BME280;5200;43.236;27.986;2022-07-12T03:05:08;100161.25;;;18.15;52.57
10310;BME280;5200;43.236;27.986;2022-07-12T03:07:35;100146.16;;;17.93;53.33
10310;BME280;5200;43.236;27.986;2022-07-12T03:10:04;100157.25;;;17.82;53.58
10310;BME280;5200;43.236;27.986;2022-07-12T03:12:31;100156.94;;;17.77;53.88
10310;BME280;5200;43.236;27.986;2022-07-12T03:14:58;100129.19;;;17.56;54.12
10310;BME280;5200;43.236;27.986;2022-07-12T03:17:25;100160.22;;;17.64;54.24
10310;BME280;5200;43.236;27.986;2022-07-12T03:19:52;100163.50;;;17.66;54.38
10310;BME280;5200;43.236;27.986;2022-07-12T03:22:20;100162.69;;;17.65;54.33
10310;BME280;5200;43.236;27.986;2022-07-12T03:24:47;100133.41;;;17.50;54.16
10310;BME280;5200;43.236;27.986;2022-07-12T03:27:14;100161.66;;;17.89;54.01
10310;BME280;5200;43.236;27.986;2022-07-12T03:29:41;100153.78;;;17.96;53.22
10310;BME280;5200;43.236;27.986;2022-07-12T03:32:08;100157.91;;;17.99;53.22
10310;BME280;5200;43.236;27.986;2022-07-12T03:34:35;100170.28;;;17.91;53.50
10310;BME280;5200;43.236;27.986;2022-07-12T03:37:02;100172.97;;;17.91;53.49
10310;BME280;5200;43.236;27.986;2022-07-12T03:39:31;100192.59;;;17.90;53.52
10310;BME280;5200;43.236;27.986;2022-07-12T03:41:58;100150.53;;;17.71;53.83
10310;BME280;5200;43.236;27.986;2022-07-12T03:44:25;100171.59;;;17.72;53.76
10310;BME280;5200;43.236;27.986;2022-07-12T03:46:52;100168.91;;;17.81;53.87
10310;BME280;5200;43.236;27.986;2022-07-12T03:49:19;100172.13;;;17.91;53.45
10310;BME280;5200;43.236;27.986;2022-07-12T03:51:45;100178.88;;;18.02;53.14
10310;BME280;5200;43.236;27.986;2022-07-12T03:54:12;100168.28;;;18.08;53.12
10310;BME280;5200;43.236;27.986;2022-07-12T03:56:41;100170.16;;;18.23;53.06
10310;BME280;5200;43.236;27.986;2022-07-12T03:59:25;100175.75;;;18.28;52.90
10310;BME280;5200;43.236;27.986;2022-07-12T04:01:52;100170.69;;;18.33;52.88
10310;BME280;5200;43.236;27.986;2022-07-12T04:04:19;100167.00;;;18.34;52.32
10310;BME280;5200;43.236;27.986;2022-07-12T04:06:46;100153.53;;;18.21;52.17
10310;BME280;5200;43.236;27.986;2022-07-12T04:09:13;100147.56;;;18.19;52.04
10310;BME280;5200;43.236;27.986;2022-07-12T04:11:42;100179.78;;;18.38;52.28
10310;BME280;5200;43.236;27.986;2022-07-12T04:14:09;100154.72;;;18.33;52.00
10310;BME280;5200;43.236;27.986;2022-07-12T04:16:36;100170.50;;;18.49;51.96
10310;BME280;5200;43.236;27.986;2022-07-12T04:19:03;100175.06;;;18.55;51.67
10310;BME280;5200;43.236;27.986;2022-07-12T04:21:30;100183.25;;;18.69;51.45
10310;BME280;5200;43.236;27.986;2022-07-12T04:23:57;100191.59;;;18.95;50.85
10310;BME280;5200;43.236;27.986;2022-07-12T04:26:24;100179.31;;;19.37;49.54
10310;BME280;5200;43.236;27.986;2022-07-12T04:28:53;100180.25;;;19.51;49.10
10310;BME280;5200;43.236;27.986;2022-07-12T04:31:19;100182.66;;;19.89;48.74
10310;BME280;5200;43.236;27.986;2022-07-12T04:33:46;100187.88;;;20.32;47.62
10310;BME280;5200;43.236;27.986;2022-07-12T04:36:13;100154.38;;;20.78;45.90
10310;BME280;5200;43.236;27.986;2022-07-12T04:38:40;100187.69;;;21.63;44.12
10310;BME280;5200;43.236;27.986;2022-07-12T04:41:07;100172.66;;;21.82;43.38
10310;BME280;5200;43.236;27.986;2022-07-12T04:43:34;100176.38;;;21.81;42.61
10310;BME280;5200;43.236;27.986;2022-07-12T04:46:07;100188.75;;;21.69;42.98
10310;BME280;5200;43.236;27.986;2022-07-12T04:48:34;100180.09;;;21.60;43.10
10310;BME280;5200;43.236;27.986;2022-07-12T04:51:01;100176.16;;;21.63;42.93
10310;BME280;5200;43.236;27.986;2022-07-12T04:53:29;100148.78;;;21.61;42.70
10310;BME280;5200;43.236;27.986;2022-07-12T04:55:56;100169.75;;;22.04;41.82
10310;BME280;5200;43.236;27.986;2022-07-12T04:58:23;100174.19;;;22.56;41.17
10310;BME280;5200;43.236;27.986;2022-07-12T05:00:50;100175.00;;;23.02;40.82
10310;BME280;5200;43.236;27.986;2022-07-12T05:03:19;100169.34;;;23.49;39.48
10310;BME280;5200;43.236;27.986;2022-07-12T05:05:46;100157.63;;;23.43;38.45
10310;BME280;5200;43.236;27.986;2022-07-12T05:08:13;100173.59;;;23.88;37.62
10310;BME280;5200;43.236;27.986;2022-07-12T05:10:40;100173.38;;;23.90;36.95
10310;BME280;5200;43.236;27.986;2022-07-12T05:13:07;100177.78;;;23.52;37.58
10310;BME280;5200;43.236;27.986;2022-07-12T05:15:34;100180.72;;;23.44;38.25
10310;BME280;5200;43.236;27.986;2022-07-12T05:18:01;100173.13;;;23.91;37.44
10310;BME280;5200;43.236;27.986;2022-07-12T05:20:29;100167.94;;;24.15;38.03
10310;BME280;5200;43.236;27.986;2022-07-12T05:22:56;100156.34;;;23.96;37.24
10310;BME280;5200;43.236;27.986;2022-07-12T05:25:23;100171.66;;;23.95;37.73
10310;BME280;5200;43.236;27.986;2022-07-12T05:27:50;100173.31;;;24.15;37.05
10310;BME280;5200;43.236;27.986;2022-07-12T05:30:16;100168.84;;;24.09;37.63
10310;BME280;5200;43.236;27.986;2022-07-12T05:32:43;100179.44;;;24.03;38.12
10310;BME280;5200;43.236;27.986;2022-07-12T05:35:10;100178.34;;;24.11;37.44
10310;BME280;5200;43.236;27.986;2022-07-12T05:37:39;100173.22;;;24.03;37.76
10310;BME280;5200;43.236;27.986;2022-07-12T05:40:07;100184.03;;;23.96;37.20
10310;BME280;5200;43.236;27.986;2022-07-12T05:42:34;100186.31;;;23.68;37.59
10310;BME280;5200;43.236;27.986;2022-07-12T05:45:02;100194.56;;;23.48;38.50
10310;BME280;5200;43.236;27.986;2022-07-12T05:47:28;100184.78;;;23.53;38.67
10310;BME280;5200;43.236;27.986;2022-07-12T05:49:55;100176.13;;;23.51;38.37
10310;BME280;5200;43.236;27.986;2022-07-12T05:52:22;100182.44;;;23.38;38.26
10310;BME280;5200;43.236;27.986;2022-07-12T05:55:08;100176.38;;;23.18;38.37
10310;BME280;5200;43.236;27.986;2022-07-12T05:57:35;100178.47;;;23.09;38.77
10310;BME280;5200;43.236;27.986;2022-07-12T06:00:03;100183.09;;;22.95;39.26
10310;BME280;5200;43.236;27.986;2022-07-12T06:02:30;100204.16;;;22.85;39.59
10310;BME280;5200;43.236;27.986;2022-07-12T06:04:57;100189.50;;;22.88;39.40
10310;BME280;5200;43.236;27.986;2022-07-12T06:07:24;100181.53;;;22.74;39.01
10310;BME280;5200;43.236;27.986;2022-07-12T06:09:51;100187.66;;;22.88;40.04
10310;BME280;5200;43.236;27.986;2022-07-12T06:12:20;100194.63;;;23.03;39.48
10310;BME280;5200;43.236;27.986;2022-07-12T06:14:46;100190.31;;;23.33;39.15
10310;BME280;5200;43.236;27.986;2022-07-12T06:17:14;100193.25;;;23.82;38.18
10310;BME280;5200;43.236;27.986;2022-07-12T06:19:41;100203.44;;;23.98;37.73
10310;BME280;5200;43.236;27.986;2022-07-12T06:22:08;100199.34;;;23.96;36.80
10310;BME280;5200;43.236;27.986;2022-07-12T06:24:35;100192.34;;;23.95;37.16
10310;BME280;5200;43.236;27.986;2022-07-12T06:27:02;100199.28;;;24.02;37.34
10310;BME280;5200;43.236;27.986;2022-07-12T06:29:30;100197.16;;;24.11;36.94
10310;BME280;5200;43.236;27.986;2022-07-12T06:31:57;100199.59;;;24.13;37.08
10310;BME280;5200;43.236;27.986;2022-07-12T06:34:24;100198.56;;;24.14;38.04
10310;BME280;5200;43.236;27.986;2022-07-12T06:36:51;100201.25;;;24.14;37.25
10310;BME280;5200;43.236;27.986;2022-07-12T06:39:18;100196.75;;;24.08;37.13
10310;BME280;5200;43.236;27.986;2022-07-12T06:41:45;100189.44;;;24.15;37.20
10310;BME280;5200;43.236;27.986;2022-07-12T06:44:12;100193.56;;;24.17;37.40
10310;BME280;5200;43.236;27.986;2022-07-12T06:46:40;100189.28;;;24.53;36.67
10310;BME280;5200;43.236;27.986;2022-07-12T06:49:07;100187.72;;;24.94;35.52
10310;BME280;5200;43.236;27.986;2022-07-12T06:51:34;100192.00;;;25.44;35.31
10310;BME280;5200;43.236;27.986;2022-07-12T06:54:04;100182.81;;;25.87;35.02
10310;BME280;5200;43.236;27.986;2022-07-12T06:56:31;100185.66;;;26.15;34.20
10310;BME280;5200;43.236;27.986;2022-07-12T06:58:58;100178.69;;;26.20;33.30
10310;BME280;5200;43.236;27.986;2022-07-12T07:01:25;100178.09;;;26.41;32.82
10310;BME280;5200;43.236;27.986;2022-07-12T07:03:53;100194.47;;;26.75;33.23
10310;BME280;5200;43.236;27.986;2022-07-12T07:06:28;100181.34;;;26.95;32.63
10310;BME280;5200;43.236;27.986;2022-07-12T07:08:55;100176.81;;;27.13;31.94
10310;BME280;5200;43.236;27.986;2022-07-12T07:11:22;100183.66;;;27.32;31.97
10310;BME280;5200;43.236;27.986;2022-07-12T07:13:48;100187.28;;;27.55;31.91
10310;BME280;5200;43.236;27.986;2022-07-12T07:16:15;100184.16;;;27.80;31.70
10310;BME280;5200;43.236;27.986;2022-07-12T07:18:43;100175.50;;;27.95;31.04
10310;BME280;5200;43.236;27.986;2022-07-12T07:21:12;100177.28;;;27.89;30.73
10310;BME280;5200;43.236;27.986;2022-07-12T07:23:38;100180.97;;;27.66;30.97
10310;BME280;5200;43.236;27.986;2022-07-12T07:26:06;100182.09;;;27.36;30.69
10310;BME280;5200;43.236;27.986;2022-07-12T07:28:33;100185.97;;;27.12;31.58
10310;BME280;5200;43.236;27.986;2022-07-12T07:31:20;100171.47;;;27.01;30.83
10310;BME280;5200;43.236;27.986;2022-07-12T07:33:46;100187.78;;;27.52;30.61
10310;BME280;5200;43.236;27.986;2022-07-12T07:36:14;100179.47;;;28.09;29.87
10310;BME280;5200;43.236;27.986;2022-07-12T07:38:41;100188.66;;;28.47;29.46
10310;BME280;5200;43.236;27.986;2022-07-12T07:41:08;100185.53;;;28.38;28.89
10310;BME280;5200;43.236;27.986;2022-07-12T07:43:35;100191.16;;;28.32;29.45
10310;BME280;5200;43.236;27.986;2022-07-12T07:46:02;100188.56;;;28.03;29.20
10310;BME280;5200;43.236;27.986;2022-07-12T07:48:29;100191.22;;;27.98;29.78
10310;BME280;5200;43.236;27.986;2022-07-12T07:50:56;100198.75;;;27.96;29.36
10310;BME280;5200;43.236;27.986;2022-07-12T07:53:25;100200.06;;;27.93;29.75
10310;BME280;5200;43.236;27.986;2022-07-12T07:55:52;100202.66;;;28.05;29.67
10310;BME280;5200;43.236;27.986;2022-07-12T07:58:19;100213.06;;;28.13;29.26
10310;BME280;5200;43.236;27.986;2022-07-12T08:00:49;100202.19;;;28.08;29.55
10310;BME280;5200;43.236;27.986;2022-07-12T08:03:16;100204.81;;;28.42;30.38
10310;BME280;5200;43.236;27.986;2022-07-12T08:05:43;100210.16;;;28.81;29.74
10310;BME280;5200;43.236;27.986;2022-07-12T08:08:10;100210.84;;;29.15;29.61
10310;BME280;5200;43.236;27.986;2022-07-12T08:10:38;100205.94;;;29.44;28.59
10310;BME280;5200;43.236;27.986;2022-07-12T08:13:05;100204.47;;;29.59;28.23
10310;BME280;5200;43.236;27.986;2022-07-12T08:15:32;100199.78;;;29.81;27.98
10310;BME280;5200;43.236;27.986;2022-07-12T08:17:59;100189.59;;;29.99;27.50
10310;BME280;5200;43.236;27.986;2022-07-12T08:20:26;100191.25;;;30.05;27.89
10310;BME280;5200;43.236;27.986;2022-07-12T08:22:53;100186.34;;;30.02;27.78
10310;BME280;5200;43.236;27.986;2022-07-12T08:25:20;100192.75;;;29.85;27.96
10310;BME280;5200;43.236;27.986;2022-07-12T08:27:48;100186.44;;;29.75;27.78
10310;BME280;5200;43.236;27.986;2022-07-12T08:30:15;100189.53;;;29.93;28.27
10310;BME280;5200;43.236;27.986;2022-07-12T08:32:46;100191.81;;;30.12;28.00
10310;BME280;5200;43.236;27.986;2022-07-12T08:35:13;100190.25;;;30.21;28.16
10310;BME280;5200;43.236;27.986;2022-07-12T08:37:40;100194.13;;;30.30;27.35
10310;BME280;5200;43.236;27.986;2022-07-12T08:40:08;100185.50;;;30.39;26.05
10310;BME280;5200;43.236;27.986;2022-07-12T08:42:40;100195.25;;;30.34;25.98
10310;BME280;5200;43.236;27.986;2022-07-12T08:45:09;100188.16;;;30.33;26.15
10310;BME280;5200;43.236;27.986;2022-07-12T08:47:36;100189.88;;;30.50;26.94
10310;BME280;5200;43.236;27.986;2022-07-12T08:50:14;100192.63;;;30.60;25.54
10310;BME280;5200;43.236;27.986;2022-07-12T08:52:43;100185.63;;;30.69;25.24
10310;BME280;5200;43.236;27.986;2022-07-12T08:55:23;100172.53;;;30.66;26.06
10310;BME280;5200;43.236;27.986;2022-07-12T08:57:51;100189.84;;;30.40;25.48
10310;BME280;5200;43.236;27.986;2022-07-12T09:00:20;100183.75;;;30.22;25.83
10310;BME280;5200;43.236;27.986;2022-07-12T09:02:49;100177.78;;;30.20;26.11
10310;BME280;5200;43.236;27.986;2022-07-12T09:05:18;100182.22;;;30.31;26.59
10310;BME280;5200;43.236;27.986;2022-07-12T09:07:45;100168.53;;;30.21;25.70
10310;BME280;5200;43.236;27.986;2022-07-12T09:10:12;100176.03;;;29.99;24.82
10310;BME280;5200;43.236;27.986;2022-07-12T09:12:41;100170.59;;;29.99;25.62
10310;BME280;5200;43.236;27.986;2022-07-12T09:15:15;100171.41;;;29.99;26.30
10310;BME280;5200;43.236;27.986;2022-07-12T09:17:55;100169.50;;;29.95;26.56
10310;BME280;5200;43.236;27.986;2022-07-12T09:20:24;100160.88;;;30.08;27.08
10310;BME280;5200;43.236;27.986;2022-07-12T09:22:54;100157.34;;;30.55;27.30
10310;BME280;5200;43.236;27.986;2022-07-12T09:25:21;100158.25;;;31.02;26.05
10310;BME280;5200;43.236;27.986;2022-07-12T09:27:51;100169.97;;;31.28;25.72
10310;BME280;5200;43.236;27.986;2022-07-12T09:30:19;100170.81;;;31.33;25.57
10310;BME280;5200;43.236;27.986;2022-07-12T09:32:53;100166.97;;;31.29;26.04
10310;BME280;5200;43.236;27.986;2022-07-12T09:35:38;100165.66;;;31.57;25.77
10310;BME280;5200;43.236;27.986;2022-07-12T09:38:22;100160.47;;;31.76;24.45
10310;BME280;5200;43.236;27.986;2022-07-12T09:40:50;100162.31;;;31.91;24.22
10310;BME280;5200;43.236;27.986;2022-07-12T09:43:18;100166.69;;;31.87;23.45
10310;BME280;5200;43.236;27.986;2022-07-12T09:45:47;100157.41;;;32.09;23.67
10310;BME280;5200;43.236;27.986;2022-07-12T09:48:15;100156.91;;;32.01;23.81
10310;BME280;5200;43.236;27.986;2022-07-12T09:50:46;100151.72;;;32.10;24.03
10310;BME280;5200;43.236;27.986;2022-07-12T09:53:21;100157.34;;;32.24;23.90
10310;BME280;5200;43.236;27.986;2022-07-12T09:55:51;100152.94;;;32.43;24.36
10310;BME280;5200;43.236;27.986;2022-07-12T09:58:29;100135.75;;;32.48;24.33
10310;BME280;5200;43.236;27.986;2022-07-12T10:00:59;100141.22;;;32.53;23.81
10310;BME280;5200;43.236;27.986;2022-07-12T10:03:29;100142.06;;;32.33;23.64
10310;BME280;5200;43.236;27.986;2022-07-12T10:05:59;100149.28;;;31.98;24.35
10310;BME280;5200;43.236;27.986;2022-07-12T10:08:27;100138.69;;;31.97;24.51
10310;BME280;5200;43.236;27.986;2022-07-12T10:10:55;100128.56;;;32.08;25.37
10310;BME280;5200;43.236;27.986;2022-07-12T10:13:23;100131.25;;;32.23;24.83
10310;BME280;5200;43.236;27.986;2022-07-12T10:15:51;100137.75;;;32.27;24.38
10310;BME280;5200;43.236;27.986;2022-07-12T10:18:19;100132.31;;;32.27;24.92
10310;BME280;5200;43.236;27.986;2022-07-12T10:20:49;100128.25;;;32.19;23.96
10310;BME280;5200;43.236;27.986;2022-07-12T10:23:30;100130.97;;;32.19;24.15
10310;BME280;5200;43.236;27.986;2022-07-12T10:26:00;100129.91;;;32.20;24.70
10310;BME280;5200;43.236;27.986;2022-07-12T10:28:57;100124.97;;;32.28;23.96
10310;BME280;5200;43.236;27.986;2022-07-12T10:31:28;100131.69;;;32.46;24.19
10310;BME280;5200;43.236;27.986;2022-07-12T10:34:07;100114.81;;;32.43;24.56
10310;BME280;5200;43.236;27.986;2022-07-12T10:39:32;100123.09;;;32.18;24.80
10310;BME280;5200;43.236;27.986;2022-07-12T10:42:16;100106.84;;;31.97;25.42
10310;BME280;5200;43.236;27.986;2022-07-12T10:44:45;100115.53;;;31.99;25.93
10310;BME280;5200;43.236;27.986;2022-07-12T10:47:13;100107.13;;;31.96;25.33
10310;BME280;5200;43.236;27.986;2022-07-12T10:49:49;100117.75;;;31.87;25.88
10310;BME280;5200;43.236;27.986;2022-07-12T10:52:26;100118.06;;;31.70;25.68
10310;BME280;5200;43.236;27.986;2022-07-12T10:55:19;100117.25;;;31.29;25.28
10310;BME280;5200;43.236;27.986;2022-07-12T10:57:48;100109.09;;;31.44;25.50
10310;BME280;5200;43.236;27.986;2022-07-12T11:00:17;100113.44;;;31.71;26.05
10310;BME280;5200;43.236;27.986;2022-07-12T11:02:45;100111.22;;;31.83;25.47
10310;BME280;5200;43.236;27.986;2022-07-12T11:05:12;100098.16;;;31.85;25.46
10310;BME280;5200;43.236;27.986;2022-07-12T11:07:39;100103.56;;;32.06;25.38
10310;BME280;5200;43.236;27.986;2022-07-12T11:10:07;100102.47;;;32.01;25.37
10310;BME280;5200;43.236;27.986;2022-07-12T11:12:39;100095.41;;;32.06;25.73
10310;BME280;5200;43.236;27.986;2022-07-12T11:15:07;100094.25;;;32.22;25.62
10310;BME280;5200;43.236;27.986;2022-07-12T11:17:34;100080.63;;;32.22;25.09
10310;BME280;5200;43.236;27.986;2022-07-12T11:20:06;100082.88;;;31.94;25.65
10310;BME280;5200;43.236;27.986;2022-07-12T11:22:34;100092.69;;;32.06;26.26
10310;BME280;5200;43.236;27.986;2022-07-12T11:25:02;100089.41;;;32.09;26.16
10310;BME280;5200;43.236;27.986;2022-07-12T11:27:29;100084.44;;;32.21;26.08
10310;BME280;5200;43.236;27.986;2022-07-12T11:29:58;100088.50;;;32.23;25.60
10310;BME280;5200;43.236;27.986;2022-07-12T11:32:36;100084.50;;;32.11;24.53
10310;BME280;5200;43.236;27.986;2022-07-12T11:35:17;100093.63;;;31.45;25.82
10310;BME280;5200;43.236;27.986;2022-07-12T11:37:52;100104.75;;;31.28;26.38
10310;BME280;5200;43.236;27.986;2022-07-12T11:40:23;100100.41;;;31.16;26.99
10310;BME280;5200;43.236;27.986;2022-07-12T11:42:54;100098.78;;;30.95;27.13
10310;BME280;5200;43.236;27.986;2022-07-12T11:45:25;100102.47;;;30.53;27.57
10310;BME280;5200;43.236;27.986;2022-07-12T11:47:52;100102.97;;;30.29;28.27
10310;BME280;5200;43.236;27.986;2022-07-12T11:50:20;100095.16;;;29.96;29.47
10310;BME280;5200;43.236;27.986;2022-07-12T11:52:47;100111.22;;;30.02;29.78
10310;BME280;5200;43.236;27.986;2022-07-12T11:55:14;100099.00;;;30.00;29.21
10310;BME280;5200;43.236;27.986;2022-07-12T11:57:41;100103.41;;;30.16;29.70
10310;BME280;5200;43.236;27.986;2022-07-12T12:00:16;100101.38;;;30.49;29.39
10310;BME280;5200;43.236;27.986;2022-07-12T12:02:45;100095.41;;;30.47;28.73
10310;BME280;5200;43.236;27.986;2022-07-12T12:05:12;100102.63;;;30.21;28.62
10310;BME280;5200;43.236;27.986;2022-07-12T12:07:40;100102.22;;;29.91;28.35
10310;BME280;5200;43.236;27.986;2022-07-12T12:10:10;100096.16;;;29.74;29.21
10310;BME280;5200;43.236;27.986;2022-07-12T12:12:41;100096.13;;;29.69;29.28
10310;BME280;5200;43.236;27.986;2022-07-12T12:15:10;100098.19;;;29.57;29.79
10310;BME280;5200;43.236;27.986;2022-07-12T12:17:43;100103.78;;;29.40;30.82
10310;BME280;5200;43.236;27.986;2022-07-12T12:20:16;100088.69;;;29.17;31.31
10310;BME280;5200;43.236;27.986;2022-07-12T12:22:44;100097.88;;;29.16;31.84
10310;BME280;5200;43.236;27.986;2022-07-12T12:25:11;100097.41;;;29.24;32.37
10310;BME280;5200;43.236;27.986;2022-07-12T12:27:44;100094.72;;;29.66;31.58
10310;BME280;5200;43.236;27.986;2022-07-12T12:30:12;100097.63;;;29.97;31.41
10310;BME280;5200;43.236;27.986;2022-07-12T12:32:47;100086.94;;;30.28;31.02
10310;BME280;5200;43.236;27.986;2022-07-12T12:35:17;100094.81;;;30.29;27.77
10310;BME280;5200;43.236;27.986;2022-07-12T12:37:55;100083.97;;;29.82;29.67
10310;BME280;5200;43.236;27.986;2022-07-12T12:40:23;100084.25;;;29.75;30.46
10310;BME280;5200;43.236;27.986;2022-07-12T12:42:51;100086.34;;;29.68;30.55
10310;BME280;5200;43.236;27.986;2022-07-12T12:45:19;100089.72;;;29.85;29.67
10310;BME280;5200;43.236;27.986;2022-07-12T12:47:57;100086.53;;;29.99;29.33
10310;BME280;5200;43.236;27.986;2022-07-12T12:50:43;100073.78;;;29.99;29.92
10310;BME280;5200;43.236;27.986;2022-07-12T12:53:13;100082.81;;;29.67;30.55
10310;BME280;5200;43.236;27.986;2022-07-12T12:55:40;100076.34;;;29.31;31.00
10310;BME280;5200;43.236;27.986;2022-07-12T12:58:08;100069.75;;;29.22;31.28
10310;BME280;5200;43.236;27.986;2022-07-12T13:00:36;100076.09;;;29.05;31.43